createdAt,value
2023-03-27T00:01:34.291Z,24.98
2023-03-27T00:04:02.523Z,25.58
2023-03-27T00:06:34.623Z,25.58
2023-03-27T00:09:03.824Z,26.45
2023-03-27T00:11:31.964Z,25.02
2023-03-27T00:14:00.676Z,24.95
2023-03-27T00:16:28.762Z,23.40
2023-03-27T00:18:57.073Z,24.38
2023-03-27T00:21:26.149Z,24.73
2023-03-27T00:23:56.693Z,24.60
2023-03-27T00:26:24.984Z,23.75
2023-03-27T00:28:54.893Z,21.63
2023-03-27T00:31:23.156Z,24.92
2023-03-27T00:33:51.327Z,22.50
2023-03-27T00:36:19.450Z,22.48
2023-03-27T00:38:47.634Z,21.88
2023-03-27T00:41:17.191Z,22.30
2023-03-27T00:43:45.448Z,20.92
2023-03-27T00:46:31.790Z,22.50
2023-03-27T00:49:01.595Z,21.80
2023-03-27T00:51:29.733Z,22.20
2023-03-27T00:53:57.987Z,21.10
2023-03-27T00:56:27.954Z,20.30
2023-03-27T00:58:57.444Z,20.00
2023-03-27T01:01:27.791Z,21.20
2023-03-27T01:03:56.293Z,18.55
2023-03-27T01:06:24.410Z,18.15
2023-03-27T01:08:52.941Z,19.40
2023-03-27T01:11:25.080Z,17.88
2023-03-27T01:14:01.997Z,19.85
2023-03-27T01:16:32.126Z,18.45
2023-03-27T01:19:06.199Z,17.48
2023-03-27T01:21:54.922Z,18.67
2023-03-27T01:24:41.377Z,18.08
2023-03-27T01:27:16.249Z,18.83
2023-03-27T01:29:52.266Z,18.63
2023-03-27T01:32:44.754Z,18.98
2023-03-27T01:35:24.717Z,15.98
2023-03-27T01:38:04.923Z,15.18
2023-03-27T01:40:34.532Z,18.23
2023-03-27T01:43:03.773Z,17.00
2023-03-27T01:45:36.345Z,17.42
2023-03-27T01:48:06.212Z,14.93
2023-03-27T01:50:35.818Z,16.65
2023-03-27T01:53:06.597Z,16.00
2023-03-27T01:55:37.323Z,16.67
2023-03-27T01:58:07.542Z,15.70
2023-03-27T02:00:50.943Z,16.98
2023-03-27T02:03:22.671Z,13.55
2023-03-27T02:05:53.092Z,15.05
2023-03-27T02:08:24.773Z,16.20
2023-03-27T02:10:59.457Z,13.70
2023-03-27T02:13:31.142Z,14.32
2023-03-27T02:15:59.525Z,13.10
2023-03-27T02:18:31.608Z,15.52
2023-03-27T02:20:59.898Z,13.05
2023-03-27T02:23:30.820Z,13.35
2023-03-27T02:26:00.414Z,13.60
2023-03-27T02:28:35.184Z,13.35
2023-03-27T02:31:32.969Z,13.40
2023-03-27T02:34:12.022Z,11.93
2023-03-27T02:36:43.507Z,13.25
2023-03-27T02:39:14.176Z,11.85
2023-03-27T02:41:45.945Z,13.93
2023-03-27T02:44:46.546Z,12.38
2023-03-27T02:47:17.654Z,11.93
2023-03-27T02:49:47.976Z,12.88
2023-03-27T02:52:19.671Z,11.30
2023-03-27T02:54:49.180Z,12.57
2023-03-27T02:57:20.541Z,11.57
2023-03-27T03:00:19.984Z,11.43
2023-03-27T03:02:55.412Z,10.43
2023-03-27T03:05:23.664Z,12.35
2023-03-27T03:07:54.314Z,11.32
2023-03-27T03:10:26.120Z,11.18
2023-03-27T03:12:55.645Z,10.38
2023-03-27T03:15:23.828Z,11.57
2023-03-27T03:17:52.117Z,11.07
2023-03-27T03:20:21.559Z,11.50
2023-03-27T03:22:49.715Z,11.10
2023-03-27T03:25:19.893Z,11.43
2023-03-27T03:27:48.134Z,10.13
2023-03-27T03:30:18.482Z,10.45
2023-03-27T03:32:58.453Z,9.98
2023-03-27T03:35:26.838Z,10.70
2023-03-27T03:37:58.328Z,11.02
2023-03-27T03:40:27.408Z,10.20
2023-03-27T03:42:58.837Z,9.95
2023-03-27T03:45:31.267Z,9.93
2023-03-27T03:48:00.931Z,9.48
2023-03-27T03:50:29.108Z,10.02
2023-03-27T03:52:57.424Z,9.30
2023-03-27T03:55:26.376Z,8.30
2023-03-27T03:57:55.703Z,8.60
2023-03-27T04:00:27.086Z,9.38
2023-03-27T04:02:59.218Z,8.32
2023-03-27T04:05:27.637Z,9.35
2023-03-27T04:08:00.187Z,9.80
2023-03-27T04:10:50.926Z,10.35
2023-03-27T04:13:42.438Z,7.60
2023-03-27T04:16:28.808Z,10.18
2023-03-27T04:18:59.156Z,8.95
2023-03-27T04:21:29.077Z,13.48
2023-03-27T04:24:02.686Z,7.88
2023-03-27T04:26:43.490Z,8.73
2023-03-27T04:29:30.210Z,8.75
2023-03-27T04:32:01.347Z,8.93
2023-03-27T04:34:40.597Z,11.07
2023-03-27T04:37:27.076Z,12.25
2023-03-27T04:40:18.046Z,11.50
2023-03-27T04:42:46.625Z,12.38
2023-03-27T04:45:17.301Z,10.32
2023-03-27T04:47:50.346Z,12.55
2023-03-27T04:50:20.147Z,14.15
2023-03-27T04:52:50.647Z,13.90
2023-03-27T04:55:20.579Z,15.23
2023-03-27T04:57:51.185Z,16.20
2023-03-27T05:00:23.108Z,18.95
2023-03-27T05:03:18.211Z,19.38
2023-03-27T05:06:02.642Z,40.63
2023-03-27T05:08:31.206Z,30.90
2023-03-27T05:10:59.828Z,30.27
2023-03-27T05:13:31.433Z,24.73
2023-03-27T05:16:01.869Z,27.83
2023-03-27T05:18:38.518Z,42.20
2023-03-27T05:21:11.754Z,30.10
2023-03-27T05:23:40.076Z,30.42
2023-03-27T05:26:09.208Z,46.08
2023-03-27T05:28:49.129Z,41.65
2023-03-27T05:31:17.489Z,40.95
2023-03-27T05:34:08.840Z,48.50
2023-03-27T05:36:40.401Z,41.97
2023-03-27T05:39:08.576Z,48.85
2023-03-27T05:41:41.620Z,48.38
2023-03-27T05:44:09.750Z,51.88
2023-03-27T05:46:42.745Z,57.13
2023-03-27T05:49:19.035Z,54.58
2023-03-27T05:51:53.988Z,53.15
2023-03-27T05:54:22.382Z,54.90
2023-03-27T05:57:01.862Z,54.80
2023-03-27T05:59:30.462Z,54.78
2023-03-27T06:02:20.539Z,51.53
2023-03-27T06:04:56.496Z,48.13
2023-03-27T06:07:32.451Z,55.47
2023-03-27T06:10:07.704Z,52.60
2023-03-27T06:12:45.912Z,54.13
2023-03-27T06:15:26.662Z,52.95
2023-03-27T06:18:10.985Z,50.72
2023-03-27T06:20:40.129Z,51.15
2023-03-27T06:23:09.609Z,50.60
2023-03-27T06:25:39.377Z,48.95
2023-03-27T06:28:09.611Z,52.72
2023-03-27T06:30:49.893Z,53.60
2023-03-27T06:33:41.184Z,50.90
2023-03-27T06:36:20.258Z,50.67
2023-03-27T06:38:54.401Z,50.97
2023-03-27T06:41:23.236Z,55.47
2023-03-27T06:44:09.378Z,49.90
2023-03-27T06:47:00.828Z,50.95
2023-03-27T06:49:49.332Z,51.47
2023-03-27T06:52:22.871Z,50.05
2023-03-27T06:54:53.036Z,50.42
2023-03-27T06:57:21.264Z,51.25
2023-03-27T06:59:51.467Z,51.40
2023-03-27T07:02:24.101Z,49.22
2023-03-27T07:05:28.043Z,47.25
2023-03-27T07:07:57.447Z,48.28
2023-03-27T07:10:30.778Z,50.10
2023-03-27T07:13:00.940Z,47.22
2023-03-27T07:15:29.076Z,46.42
2023-03-27T07:17:57.505Z,46.42
2023-03-27T07:20:27.873Z,48.08
2023-03-27T07:22:57.635Z,47.80
2023-03-27T07:25:46.718Z,46.83
2023-03-27T07:28:23.193Z,42.88
2023-03-27T07:30:51.674Z,47.58
2023-03-27T07:33:22.357Z,44.58
2023-03-27T07:35:50.899Z,43.30
2023-03-27T07:38:46.803Z,42.58
2023-03-27T07:41:30.099Z,44.55
2023-03-27T07:44:18.933Z,44.92
2023-03-27T07:46:57.264Z,47.42
2023-03-27T07:49:39.460Z,41.45
2023-03-27T07:52:14.758Z,42.35
2023-03-27T07:54:53.926Z,40.42
2023-03-27T07:57:26.258Z,42.70
2023-03-27T08:00:01.638Z,42.50
2023-03-27T08:02:45.737Z,42.70
2023-03-27T08:05:16.250Z,40.40
2023-03-27T08:07:48.557Z,40.05
2023-03-27T08:10:30.808Z,39.67
2023-03-27T08:13:04.009Z,38.58
2023-03-27T08:15:32.379Z,39.63
2023-03-27T08:18:02.039Z,37.80
2023-03-27T08:20:31.727Z,37.67
2023-03-27T08:23:00.779Z,39.97
2023-03-27T08:25:33.217Z,37.80
2023-03-27T08:28:05.474Z,38.83
2023-03-27T08:30:33.676Z,36.40
2023-03-27T08:33:02.436Z,37.63
2023-03-27T08:35:31.158Z,36.05
2023-03-27T08:37:59.342Z,37.80
2023-03-27T08:40:49.192Z,37.38
2023-03-27T08:43:28.809Z,34.75
2023-03-27T08:45:59.319Z,36.05
2023-03-27T08:48:30.660Z,35.45
2023-03-27T08:51:00.412Z,33.67
2023-03-27T08:53:33.081Z,32.45
2023-03-27T08:56:03.560Z,36.05
2023-03-27T08:58:40.410Z,33.15
2023-03-27T09:01:26.233Z,33.53
2023-03-27T09:03:59.788Z,31.77
2023-03-27T09:06:30.506Z,32.83
2023-03-27T09:09:07.197Z,32.20
2023-03-27T09:11:47.761Z,33.00
2023-03-27T09:14:34.428Z,30.45
2023-03-27T09:17:06.829Z,30.45
2023-03-27T09:19:40.903Z,32.58
2023-03-27T09:22:12.480Z,28.77
2023-03-27T09:25:03.895Z,29.88
2023-03-27T09:27:50.830Z,30.17
2023-03-27T09:30:43.432Z,30.55
2023-03-27T09:33:28.989Z,29.80
2023-03-27T09:35:57.401Z,28.98
2023-03-27T09:38:28.259Z,29.13
2023-03-27T09:40:59.201Z,28.52
2023-03-27T09:43:31.679Z,28.88
2023-03-27T09:46:03.548Z,26.05
2023-03-27T09:48:36.226Z,27.65
2023-03-27T09:51:41.281Z,27.83
2023-03-27T09:54:29.895Z,25.15
2023-03-27T09:57:01.927Z,26.67
2023-03-27T09:59:30.793Z,26.17
2023-03-27T10:02:18.303Z,25.85
2023-03-27T10:04:59.003Z,23.95
2023-03-27T10:07:33.567Z,24.40
2023-03-27T10:10:11.649Z,24.35
2023-03-27T10:13:05.996Z,24.25
2023-03-27T10:15:42.789Z,25.65
2023-03-27T10:18:24.102Z,23.25
2023-03-27T10:20:55.675Z,24.15
2023-03-27T10:23:25.628Z,23.75
2023-03-27T10:25:55.327Z,23.70
2023-03-27T10:28:28.454Z,22.35
2023-03-27T10:31:26.762Z,22.73
2023-03-27T10:34:32.544Z,22.13
2023-03-27T10:37:21.673Z,22.67
2023-03-27T10:39:56.198Z,20.70
2023-03-27T10:42:33.588Z,20.38
2023-03-27T10:45:01.814Z,23.23
2023-03-27T10:47:32.474Z,21.08
2023-03-27T10:50:09.649Z,20.90
2023-03-27T10:52:50.733Z,20.63
2023-03-27T10:55:34.255Z,19.70
2023-03-27T10:58:06.467Z,20.27
2023-03-27T11:00:39.733Z,19.30
2023-03-27T11:03:12.602Z,20.65
2023-03-27T11:05:44.328Z,18.52
2023-03-27T11:08:24.590Z,19.73
2023-03-27T11:10:52.763Z,19.17
2023-03-27T11:13:29.653Z,18.92
2023-03-27T11:16:05.725Z,18.77
2023-03-27T11:18:55.459Z,19.02
2023-03-27T11:21:28.536Z,17.65
2023-03-27T11:24:01.783Z,17.88
2023-03-27T11:26:50.738Z,17.15
2023-03-27T11:29:23.428Z,16.33
2023-03-27T11:31:55.881Z,17.85
2023-03-27T11:34:48.164Z,16.50
2023-03-27T11:37:40.097Z,15.48
2023-03-27T11:40:13.879Z,16.13
2023-03-27T11:42:43.659Z,17.00
2023-03-27T11:45:13.686Z,14.73
2023-03-27T11:48:10.832Z,15.18
2023-03-27T11:50:49.048Z,15.52
2023-03-27T11:53:28.993Z,16.60
2023-03-27T11:56:21.899Z,15.10
2023-03-27T11:59:05.563Z,14.77
2023-03-27T12:01:35.459Z,16.35
2023-03-27T12:04:25.788Z,13.75
2023-03-27T12:07:18.773Z,14.30
2023-03-27T12:10:00.039Z,15.25
2023-03-27T12:12:53.851Z,13.85
2023-03-27T12:15:30.944Z,17.30
2023-03-27T12:18:02.035Z,13.68
2023-03-27T12:20:54.090Z,13.85
2023-03-27T12:23:30.637Z,13.95
2023-03-27T12:27:14.712Z,13.52
2023-03-27T12:30:06.061Z,13.32
2023-03-27T12:32:56.005Z,12.07
2023-03-27T12:35:27.050Z,12.85
2023-03-27T12:37:58.347Z,12.75
2023-03-27T12:40:29.356Z,12.38
2023-03-27T12:43:12.488Z,13.13
2023-03-27T12:45:51.113Z,12.45
2023-03-27T12:48:22.493Z,12.07
2023-03-27T12:51:00.387Z,12.55
2023-03-27T12:53:49.997Z,12.07
2023-03-27T12:56:27.415Z,11.45
2023-03-27T12:58:57.708Z,11.73
2023-03-27T13:01:49.130Z,11.43
2023-03-27T13:04:48.456Z,11.02
2023-03-27T13:07:20.885Z,11.75
2023-03-27T13:10:21.756Z,10.98
2023-03-27T13:13:02.641Z,10.73
2023-03-27T13:15:54.239Z,10.07
2023-03-27T13:18:37.712Z,9.82
2023-03-27T13:21:14.950Z,10.25
2023-03-27T13:23:50.816Z,10.45
2023-03-27T13:26:32.393Z,10.30
2023-03-27T13:29:02.855Z,10.00
2023-03-27T13:31:58.991Z,10.90
2023-03-27T13:34:35.046Z,9.60
2023-03-27T13:37:40.120Z,10.20
2023-03-27T13:40:34.717Z,10.82
2023-03-27T13:43:18.473Z,10.18
2023-03-27T13:45:49.301Z,9.25
2023-03-27T13:49:00.327Z,10.02
2023-03-27T13:51:51.755Z,9.10
2023-03-27T13:55:10.738Z,9.13
2023-03-27T13:58:20.484Z,8.25
2023-03-27T14:01:11.850Z,9.48
2023-03-27T14:04:09.837Z,8.85
2023-03-27T14:07:16.220Z,8.35
2023-03-27T14:10:05.016Z,8.82
2023-03-27T14:12:53.397Z,8.02
2023-03-27T14:15:53.055Z,8.48
2023-03-27T14:19:04.656Z,8.30
2023-03-27T14:21:50.012Z,8.10
2023-03-27T14:24:24.478Z,8.07
2023-03-27T14:27:00.451Z,8.02
2023-03-27T14:29:28.957Z,7.53
2023-03-27T14:32:03.273Z,7.63
2023-03-27T14:34:51.064Z,7.45
2023-03-27T14:37:41.952Z,7.47
2023-03-27T14:40:32.011Z,7.70
2023-03-27T14:43:03.707Z,7.28
2023-03-27T14:45:33.488Z,7.15
2023-03-27T14:48:06.351Z,7.45
2023-03-27T14:50:44.008Z,7.13
2023-03-27T14:53:17.780Z,7.25
2023-03-27T14:56:24.277Z,7.20
2023-03-27T14:58:52.416Z,6.70
2023-03-27T15:01:22.011Z,6.63
2023-03-27T15:03:54.594Z,7.30
2023-03-27T15:06:26.472Z,6.80
2023-03-27T15:09:05.397Z,7.13
2023-03-27T15:11:55.980Z,6.90
2023-03-27T15:14:30.382Z,7.60
2023-03-27T15:17:00.088Z,6.20
2023-03-27T15:19:28.853Z,5.90
2023-03-27T15:22:01.123Z,7.47
2023-03-27T15:24:36.818Z,6.43
2023-03-27T15:27:05.223Z,5.88
2023-03-27T15:29:39.356Z,5.93
2023-03-27T15:32:09.020Z,5.97
2023-03-27T15:34:46.037Z,7.70
2023-03-27T15:37:15.778Z,5.57
2023-03-27T15:40:01.176Z,6.05
2023-03-27T15:42:33.147Z,5.30
2023-03-27T15:45:03.830Z,5.50
2023-03-27T15:47:33.296Z,5.30
2023-03-27T15:50:17.207Z,5.63
2023-03-27T15:52:48.816Z,5.45
2023-03-27T15:58:17.389Z,5.20
2023-03-27T16:00:47.519Z,4.93
2023-03-27T16:03:18.526Z,5.43
2023-03-27T16:05:46.784Z,5.28
2023-03-27T16:08:23.373Z,5.00
2023-03-27T16:10:57.006Z,5.10
2023-03-27T16:13:29.293Z,5.00
2023-03-27T16:15:59.514Z,4.88
2023-03-27T16:18:29.619Z,5.40
2023-03-27T16:21:06.941Z,4.78
2023-03-27T16:23:35.196Z,4.70
2023-03-27T16:26:03.297Z,4.80
2023-03-27T16:28:32.996Z,5.65
2023-03-27T16:31:01.058Z,5.10
2023-03-27T16:33:29.215Z,5.05
2023-03-27T16:35:58.371Z,4.30
2023-03-27T16:38:26.745Z,4.72
2023-03-27T16:40:54.811Z,4.43
2023-03-27T16:43:23.027Z,5.15
2023-03-27T16:45:52.598Z,4.65
2023-03-27T16:48:21.373Z,4.40
2023-03-27T16:50:49.440Z,4.07
2023-03-27T16:53:17.596Z,4.32
2023-03-27T16:55:45.879Z,4.22
2023-03-27T16:58:14.280Z,3.97
2023-03-27T17:00:42.384Z,4.22
2023-03-27T17:03:12.317Z,3.60
2023-03-27T17:05:40.474Z,4.40
2023-03-27T17:08:08.833Z,4.10
2023-03-27T17:10:36.929Z,4.13
2023-03-27T17:13:05.063Z,4.20
2023-03-27T17:15:36.657Z,4.22
2023-03-27T17:18:05.070Z,4.05
2023-03-27T17:20:35.430Z,4.93
2023-03-27T17:23:03.529Z,3.88
2023-03-27T17:25:31.692Z,4.13
2023-03-27T17:27:59.861Z,3.83
2023-03-27T17:30:37.282Z,5.07
2023-03-27T17:33:09.363Z,3.20
2023-03-27T17:35:40.830Z,4.10
2023-03-27T17:38:09.292Z,3.88
2023-03-27T17:40:40.085Z,6.35
2023-03-27T17:43:08.412Z,6.50
2023-03-27T17:45:36.837Z,12.52
2023-03-27T17:48:07.051Z,11.57
2023-03-27T17:50:35.240Z,15.10
2023-03-27T17:53:04.736Z,20.00
2023-03-27T17:55:32.829Z,65.75
2023-03-27T17:58:08.858Z,50.92
2023-03-27T18:00:37.894Z,43.83
2023-03-27T18:03:06.584Z,40.38
2023-03-27T18:05:37.555Z,46.00
2023-03-27T18:08:07.962Z,37.97
2023-03-27T18:10:37.865Z,39.25
2023-03-27T18:13:06.087Z,36.80
2023-03-27T18:15:34.231Z,39.20
2023-03-27T18:18:03.506Z,39.83
2023-03-27T18:20:31.685Z,39.35
2023-03-27T18:22:59.761Z,38.72
2023-03-27T18:25:29.315Z,37.50
2023-03-27T18:27:57.449Z,35.85
2023-03-27T18:30:25.704Z,37.95
2023-03-27T18:32:53.925Z,39.22
2023-03-27T18:35:22.044Z,38.50
2023-03-27T18:37:50.203Z,39.13
2023-03-27T18:40:19.731Z,31.45
2023-03-27T18:42:49.492Z,32.78
2023-03-27T18:45:17.829Z,41.15
2023-03-27T18:47:46.071Z,34.10
2023-03-27T18:50:14.796Z,33.60
2023-03-27T18:52:42.962Z,33.42
2023-03-27T18:55:13.013Z,45.78
2023-03-27T18:57:41.139Z,39.38
2023-03-27T19:00:18.284Z,39.83
2023-03-27T19:02:46.784Z,43.85
2023-03-27T19:05:15.041Z,40.22
2023-03-27T19:07:44.447Z,41.13
2023-03-27T19:10:14.077Z,38.58
2023-03-27T19:12:45.845Z,38.35
2023-03-27T19:15:34.161Z,41.67
2023-03-27T19:18:21.140Z,42.40
2023-03-27T19:21:08.139Z,37.13
2023-03-27T19:24:03.545Z,41.03
2023-03-27T19:26:39.033Z,44.08
2023-03-27T19:29:07.236Z,39.15
2023-03-27T19:31:36.766Z,44.10
2023-03-27T19:34:04.974Z,38.40
2023-03-27T19:36:33.311Z,41.55
2023-03-27T19:39:01.453Z,37.65
2023-03-27T19:41:29.562Z,43.22
2023-03-27T19:44:00.141Z,39.83
2023-03-27T19:46:29.215Z,40.10
2023-03-27T19:48:59.824Z,39.20
2023-03-27T19:51:46.562Z,39.13
2023-03-27T19:54:15.044Z,36.88
2023-03-27T19:56:43.207Z,39.40
2023-03-27T19:59:15.321Z,43.13
2023-03-27T20:01:52.767Z,39.83
2023-03-27T20:04:22.482Z,41.03
2023-03-27T20:06:50.631Z,38.10
2023-03-27T20:09:19.066Z,38.47
2023-03-27T20:11:47.503Z,38.75
2023-03-27T20:14:15.534Z,37.92
2023-03-27T20:16:43.722Z,40.40
2023-03-27T20:19:14.161Z,38.00
2023-03-27T20:21:43.892Z,40.53
2023-03-27T20:24:17.361Z,39.00
2023-03-27T20:26:53.183Z,38.67
2023-03-27T20:29:24.850Z,40.78
2023-03-27T20:31:53.166Z,35.20
2023-03-27T20:34:22.520Z,38.53
2023-03-27T20:36:53.470Z,38.78
2023-03-27T20:39:44.731Z,39.28
2023-03-27T20:42:15.232Z,36.75
2023-03-27T20:44:44.127Z,35.58
2023-03-27T20:47:12.459Z,38.15
2023-03-27T20:49:44.892Z,37.70
2023-03-27T20:52:15.509Z,35.65
2023-03-27T20:54:43.588Z,34.92
2023-03-27T20:57:13.071Z,36.50
2023-03-27T20:59:41.274Z,36.13
2023-03-27T21:02:14.299Z,37.38
2023-03-27T21:04:42.424Z,35.00
2023-03-27T21:07:10.749Z,33.38
2023-03-27T21:09:40.478Z,36.20
2023-03-27T21:12:09.179Z,33.17
2023-03-27T21:14:37.337Z,35.35
2023-03-27T21:17:05.571Z,33.25
2023-03-27T21:19:33.711Z,33.60
2023-03-27T21:22:01.825Z,35.03
2023-03-27T21:24:29.947Z,32.90
2023-03-27T21:27:00.210Z,31.58
2023-03-27T21:29:28.336Z,31.98
2023-03-27T21:31:56.438Z,31.85
2023-03-27T21:34:24.957Z,31.67
2023-03-27T21:36:53.098Z,31.10
2023-03-27T21:39:21.361Z,31.33
2023-03-27T21:41:49.640Z,30.85
2023-03-27T21:44:19.157Z,30.77
2023-03-27T21:46:47.226Z,30.15
2023-03-27T21:49:15.388Z,27.27
2023-03-27T21:51:44.034Z,29.38
2023-03-27T21:54:12.166Z,30.90
2023-03-27T21:56:40.332Z,29.80
2023-03-27T21:59:08.460Z,27.60
2023-03-27T22:01:37.968Z,28.50
2023-03-27T22:04:06.204Z,27.77
2023-03-27T22:06:34.316Z,27.23
2023-03-27T22:09:02.384Z,28.08
2023-03-27T22:11:30.511Z,26.95
2023-03-27T22:13:59.249Z,26.92
2023-03-27T22:16:27.547Z,26.75
2023-03-27T22:18:57.104Z,26.15
2023-03-27T22:21:26.386Z,27.52
2023-03-27T22:23:54.948Z,26.23
2023-03-27T22:26:24.046Z,25.23
2023-03-27T22:28:52.618Z,26.05
2023-03-27T22:31:21.141Z,23.90
2023-03-27T22:33:49.314Z,24.95
2023-03-27T22:36:19.228Z,23.42
2023-03-27T22:38:47.421Z,25.17
2023-03-27T22:41:15.712Z,23.52
2023-03-27T22:43:43.901Z,23.77
2023-03-27T22:46:12.808Z,23.92
2023-03-27T22:48:41.083Z,23.40
2023-03-27T22:51:09.488Z,23.42
2023-03-27T22:53:39.041Z,23.02
2023-03-27T22:56:08.244Z,22.38
2023-03-27T22:58:36.358Z,25.15
2023-03-27T23:01:05.127Z,22.33
2023-03-27T23:03:33.463Z,22.05
2023-03-27T23:06:01.804Z,22.30
2023-03-27T23:08:30.023Z,21.65
2023-03-27T23:11:00.384Z,21.17
2023-03-27T23:13:29.293Z,21.20
2023-03-27T23:15:57.627Z,20.92
2023-03-27T23:18:25.974Z,20.50
2023-03-27T23:20:55.143Z,21.33
2023-03-27T23:23:23.233Z,19.65
2023-03-27T23:25:51.374Z,19.42
2023-03-27T23:28:20.872Z,19.63
2023-03-27T23:30:55.205Z,20.67
2023-03-27T23:33:25.450Z,19.30
2023-03-27T23:35:53.972Z,19.05
2023-03-27T23:38:22.157Z,18.50
2023-03-27T23:40:56.114Z,18.55
2023-03-27T23:43:26.129Z,19.77
2023-03-27T23:45:55.585Z,18.92
2023-03-27T23:48:23.897Z,17.63
2023-03-27T23:50:53.195Z,17.75
2023-03-27T23:53:22.033Z,17.10
2023-03-27T23:55:50.183Z,17.55
2023-03-27T23:58:18.327Z,17.65
